sensor_id;sensor_type;location;lat;lon;timestamp;P1;durP1;ratioP1;P2;durP2;ratioP2
12908;SDS011;6522;49.622;6.126;2022-12-29T00:00:10;2.33;;;2.12;;
12908;SDS011;6522;49.622;6.126;2022-12-29T00:02:57;1.60;;;1.42;;
12908;SDS011;6522;49.622;6.126;2022-12-29T00:05:44;2.03;;;1.80;;
12908;SDS011;6522;49.622;6.126;2022-12-29T00:08:30;1.95;;;1.45;;
12908;SDS011;6522;49.622;6.126;2022-12-29T00:11:26;2.90;;;2.55;;
12908;SDS011;6522;49.622;6.126;2022-12-29T00:14:13;2.40;;;2.20;;
12908;SDS011;6522;49.622;6.126;2022-12-29T00:17:18;2.42;;;2.22;;
12908;SDS011;6522;49.622;6.126;2022-12-29T00:20:05;2.30;;;1.77;;
12908;SDS011;6522;49.622;6.126;2022-12-29T00:23:10;3.10;;;2.35;;
12908;SDS011;6522;49.622;6.126;2022-12-29T00:26:16;2.85;;;2.65;;
12908;SDS011;6522;49.622;6.126;2022-12-29T00:29:21;5.12;;;3.10;;
12908;SDS011;6522;49.622;6.126;2022-12-29T00:32:26;2.97;;;2.65;;
12908;SDS011;6522;49.622;6.126;2022-12-29T00:35:33;4.05;;;3.75;;
12908;SDS011;6522;49.622;6.126;2022-12-29T00:38:18;2.72;;;2.53;;
12908;SDS011;6522;49.622;6.126;2022-12-29T00:41:24;4.22;;;3.42;;
12908;SDS011;6522;49.622;6.126;2022-12-29T00:44:29;3.00;;;2.80;;
12908;SDS011;6522;49.622;6.126;2022-12-29T00:47:15;3.22;;;2.92;;
12908;SDS011;6522;49.622;6.126;2022-12-29T00:50:02;3.62;;;3.30;;
12908;SDS011;6522;49.622;6.126;2022-12-29T00:52:49;3.28;;;2.97;;
12908;SDS011;6522;49.622;6.126;2022-12-29T00:55:38;4.25;;;3.05;;
12908;SDS011;6522;49.622;6.126;2022-12-29T00:58:28;5.45;;;3.40;;
12908;SDS011;6522;49.622;6.126;2022-12-29T01:01:15;3.35;;;2.70;;
12908;SDS011;6522;49.622;6.126;2022-12-29T01:04:01;5.18;;;3.50;;
12908;SDS011;6522;49.622;6.126;2022-12-29T01:06:48;3.62;;;2.75;;
12908;SDS011;6522;49.622;6.126;2022-12-29T01:09:35;4.25;;;3.85;;
12908;SDS011;6522;49.622;6.126;2022-12-29T01:12:40;3.75;;;3.45;;
12908;SDS011;6522;49.622;6.126;2022-12-29T01:15:27;4.00;;;3.62;;
12908;SDS011;6522;49.622;6.126;2022-12-29T01:18:14;5.20;;;3.10;;
12908;SDS011;6522;49.622;6.126;2022-12-29T01:21:02;4.65;;;3.83;;
12908;SDS011;6522;49.622;6.126;2022-12-29T01:23:47;4.80;;;3.60;;
12908;SDS011;6522;49.622;6.126;2022-12-29T01:26:34;3.75;;;3.37;;
12908;SDS011;6522;49.622;6.126;2022-12-29T01:29:20;12.73;;;4.50;;
12908;SDS011;6522;49.622;6.126;2022-12-29T01:32:07;3.97;;;3.58;;
12908;SDS011;6522;49.622;6.126;2022-12-29T01:34:54;3.72;;;3.37;;
12908;SDS011;6522;49.622;6.126;2022-12-29T01:37:40;4.20;;;2.70;;
12908;SDS011;6522;49.622;6.126;2022-12-29T01:40:27;5.37;;;3.92;;
12908;SDS011;6522;49.622;6.126;2022-12-29T01:43:14;3.20;;;2.67;;
12908;SDS011;6522;49.622;6.126;2022-12-29T01:46:01;4.50;;;3.30;;
12908;SDS011;6522;49.622;6.126;2022-12-29T01:48:47;5.37;;;4.28;;
12908;SDS011;6522;49.622;6.126;2022-12-29T01:51:39;4.10;;;3.70;;
12908;SDS011;6522;49.622;6.126;2022-12-29T01:54:35;5.87;;;3.90;;
12908;SDS011;6522;49.622;6.126;2022-12-29T01:57:21;5.57;;;4.60;;
12908;SDS011;6522;49.622;6.126;2022-12-29T02:00:11;4.90;;;3.92;;
12908;SDS011;6522;49.622;6.126;2022-12-29T02:02:57;6.25;;;3.80;;
12908;SDS011;6522;49.622;6.126;2022-12-29T02:08:30;5.85;;;2.90;;
12908;SDS011;6522;49.622;6.126;2022-12-29T02:11:17;3.33;;;3.00;;
12908;SDS011;6522;49.622;6.126;2022-12-29T02:14:10;3.58;;;3.28;;
12908;SDS011;6522;49.622;6.126;2022-12-29T02:17:08;6.12;;;3.85;;
12908;SDS011;6522;49.622;6.126;2022-12-29T02:20:01;5.00;;;3.50;;
12908;SDS011;6522;49.622;6.126;2022-12-29T02:25:41;2.83;;;2.45;;
12908;SDS011;6522;49.622;6.126;2022-12-29T02:34:35;5.30;;;2.70;;
12908;SDS011;6522;49.622;6.126;2022-12-29T02:37:20;3.70;;;3.10;;
12908;SDS011;6522;49.622;6.126;2022-12-29T02:40:06;3.08;;;2.78;;
12908;SDS011;6522;49.622;6.126;2022-12-29T02:42:53;3.17;;;2.87;;
12908;SDS011;6522;49.622;6.126;2022-12-29T02:45:41;2.97;;;2.75;;
12908;SDS011;6522;49.622;6.126;2022-12-29T02:48:47;5.50;;;2.60;;
12908;SDS011;6522;49.622;6.126;2022-12-29T02:52:13;2.87;;;2.42;;
12908;SDS011;6522;49.622;6.126;2022-12-29T02:54:18;6.28;;;2.67;;
12908;SDS011;6522;49.622;6.126;2022-12-29T03:00:12;6.62;;;2.25;;
12908;SDS011;6522;49.622;6.126;2022-12-29T03:05:49;2.83;;;2.53;;
12908;SDS011;6522;49.622;6.126;2022-12-29T03:08:52;3.25;;;1.60;;
12908;SDS011;6522;49.622;6.126;2022-12-29T03:11:38;7.40;;;3.03;;
12908;SDS011;6522;49.622;6.126;2022-12-29T03:14:49;3.35;;;2.45;;
12908;SDS011;6522;49.622;6.126;2022-12-29T03:17:54;3.10;;;2.80;;
12908;SDS011;6522;49.622;6.126;2022-12-29T03:20:49;2.75;;;2.25;;
12908;SDS011;6522;49.622;6.126;2022-12-29T03:23:32;4.35;;;2.70;;
12908;SDS011;6522;49.622;6.126;2022-12-29T03:26:19;3.55;;;2.12;;
12908;SDS011;6522;49.622;6.126;2022-12-29T03:29:05;3.60;;;2.45;;
12908;SDS011;6522;49.622;6.126;2022-12-29T03:31:53;4.05;;;2.70;;
12908;SDS011;6522;49.622;6.126;2022-12-29T03:34:39;4.35;;;2.80;;
12908;SDS011;6522;49.622;6.126;2022-12-29T03:37:27;3.83;;;2.28;;
12908;SDS011;6522;49.622;6.126;2022-12-29T03:40:12;2.50;;;2.30;;
12908;SDS011;6522;49.622;6.126;2022-12-29T03:42:59;2.87;;;2.55;;
12908;SDS011;6522;49.622;6.126;2022-12-29T03:45:46;3.62;;;3.10;;
12908;SDS011;6522;49.622;6.126;2022-12-29T03:48:33;3.80;;;3.10;;
12908;SDS011;6522;49.622;6.126;2022-12-29T03:51:19;2.67;;;2.45;;
12908;SDS011;6522;49.622;6.126;2022-12-29T03:54:06;2.67;;;2.45;;
12908;SDS011;6522;49.622;6.126;2022-12-29T03:56:53;5.35;;;2.40;;
12908;SDS011;6522;49.622;6.126;2022-12-29T03:59:40;4.05;;;2.80;;
12908;SDS011;6522;49.622;6.126;2022-12-29T04:02:26;4.22;;;2.75;;
12908;SDS011;6522;49.622;6.126;2022-12-29T04:05:13;3.17;;;2.60;;
12908;SDS011;6522;49.622;6.126;2022-12-29T04:07:59;3.90;;;1.90;;
12908;SDS011;6522;49.622;6.126;2022-12-29T04:10:47;3.22;;;2.87;;
12908;SDS011;6522;49.622;6.126;2022-12-29T04:13:33;5.68;;;2.60;;
12908;SDS011;6522;49.622;6.126;2022-12-29T04:16:19;3.60;;;1.90;;
12908;SDS011;6522;49.622;6.126;2022-12-29T04:19:06;6.20;;;3.17;;
12908;SDS011;6522;49.622;6.126;2022-12-29T04:21:52;3.00;;;2.80;;
12908;SDS011;6522;49.622;6.126;2022-12-29T04:24:39;3.65;;;3.03;;
12908;SDS011;6522;49.622;6.126;2022-12-29T04:27:26;5.72;;;2.55;;
12908;SDS011;6522;49.622;6.126;2022-12-29T04:30:13;3.37;;;2.45;;
12908;SDS011;6522;49.622;6.126;2022-12-29T04:32:59;3.10;;;2.80;;
12908;SDS011;6522;49.622;6.126;2022-12-29T04:35:46;3.62;;;2.35;;
12908;SDS011;6522;49.622;6.126;2022-12-29T04:38:32;3.45;;;2.30;;
12908;SDS011;6522;49.622;6.126;2022-12-29T04:41:19;2.90;;;2.45;;
12908;SDS011;6522;49.622;6.126;2022-12-29T04:44:05;4.47;;;3.15;;
12908;SDS011;6522;49.622;6.126;2022-12-29T04:46:52;2.55;;;2.03;;
12908;SDS011;6522;49.622;6.126;2022-12-29T04:49:39;3.15;;;1.60;;
12908;SDS011;6522;49.622;6.126;2022-12-29T04:52:25;3.97;;;2.30;;
12908;SDS011;6522;49.622;6.126;2022-12-29T04:55:12;4.65;;;2.30;;
12908;SDS011;6522;49.622;6.126;2022-12-29T04:57:59;2.20;;;1.92;;
12908;SDS011;6522;49.622;6.126;2022-12-29T05:00:46;8.32;;;2.55;;
12908;SDS011;6522;49.622;6.126;2022-12-29T05:03:33;3.15;;;2.30;;
12908;SDS011;6522;49.622;6.126;2022-12-29T05:06:20;3.12;;;1.92;;
12908;SDS011;6522;49.622;6.126;2022-12-29T05:09:07;2.30;;;1.92;;
12908;SDS011;6522;49.622;6.126;2022-12-29T05:11:53;6.20;;;2.40;;
12908;SDS011;6522;49.622;6.126;2022-12-29T05:14:40;2.12;;;1.85;;
12908;SDS011;6522;49.622;6.126;2022-12-29T05:17:27;5.53;;;2.30;;
12908;SDS011;6522;49.622;6.126;2022-12-29T05:20:13;5.22;;;2.03;;
12908;SDS011;6522;49.622;6.126;2022-12-29T05:23:00;4.22;;;1.87;;
12908;SDS011;6522;49.622;6.126;2022-12-29T05:25:47;3.03;;;2.72;;
12908;SDS011;6522;49.622;6.126;2022-12-29T05:28:34;2.53;;;2.33;;
12908;SDS011;6522;49.622;6.126;2022-12-29T05:31:20;4.00;;;2.08;;
12908;SDS011;6522;49.622;6.126;2022-12-29T05:34:09;3.50;;;2.97;;
12908;SDS011;6522;49.622;6.126;2022-12-29T05:36:54;3.55;;;2.90;;
12908;SDS011;6522;49.622;6.126;2022-12-29T05:39:41;2.97;;;2.70;;
12908;SDS011;6522;49.622;6.126;2022-12-29T05:42:27;2.60;;;2.40;;
12908;SDS011;6522;49.622;6.126;2022-12-29T05:45:14;2.97;;;2.72;;
12908;SDS011;6522;49.622;6.126;2022-12-29T05:48:01;3.12;;;2.80;;
12908;SDS011;6522;49.622;6.126;2022-12-29T05:50:48;7.10;;;3.83;;
12908;SDS011;6522;49.622;6.126;2022-12-29T05:53:34;3.22;;;2.92;;
12908;SDS011;6522;49.622;6.126;2022-12-29T05:56:21;3.60;;;2.70;;
12908;SDS011;6522;49.622;6.126;2022-12-29T05:59:08;5.37;;;2.80;;
12908;SDS011;6522;49.622;6.126;2022-12-29T06:01:54;2.80;;;2.60;;
12908;SDS011;6522;49.622;6.126;2022-12-29T06:04:41;4.50;;;2.70;;
12908;SDS011;6522;49.622;6.126;2022-12-29T06:07:27;3.47;;;2.62;;
12908;SDS011;6522;49.622;6.126;2022-12-29T06:10:14;3.37;;;2.70;;
12908;SDS011;6522;49.622;6.126;2022-12-29T06:13:00;3.45;;;2.60;;
12908;SDS011;6522;49.622;6.126;2022-12-29T06:15:50;4.25;;;3.60;;
12908;SDS011;6522;49.622;6.126;2022-12-29T06:18:37;3.75;;;2.95;;
12908;SDS011;6522;49.622;6.126;2022-12-29T06:21:24;5.30;;;3.35;;
12908;SDS011;6522;49.622;6.126;2022-12-29T06:24:11;3.37;;;2.50;;
12908;SDS011;6522;49.622;6.126;2022-12-29T06:26:57;3.55;;;3.00;;
12908;SDS011;6522;49.622;6.126;2022-12-29T06:29:44;3.92;;;3.60;;
12908;SDS011;6522;49.622;6.126;2022-12-29T06:32:30;3.35;;;2.67;;
12908;SDS011;6522;49.622;6.126;2022-12-29T06:35:17;3.05;;;2.75;;
12908;SDS011;6522;49.622;6.126;2022-12-29T06:38:03;3.22;;;2.80;;
12908;SDS011;6522;49.622;6.126;2022-12-29T06:40:50;3.80;;;2.62;;
12908;SDS011;6522;49.622;6.126;2022-12-29T06:43:38;2.78;;;2.58;;
12908;SDS011;6522;49.622;6.126;2022-12-29T06:46:24;3.62;;;2.47;;
12908;SDS011;6522;49.622;6.126;2022-12-29T06:49:11;3.90;;;3.22;;
12908;SDS011;6522;49.622;6.126;2022-12-29T06:51:58;4.10;;;3.00;;
12908;SDS011;6522;49.622;6.126;2022-12-29T06:54:44;2.75;;;2.55;;
12908;SDS011;6522;49.622;6.126;2022-12-29T06:57:31;4.05;;;3.20;;
12908;SDS011;6522;49.622;6.126;2022-12-29T07:00:18;4.05;;;2.50;;
12908;SDS011;6522;49.622;6.126;2022-12-29T07:03:05;4.45;;;2.90;;
12908;SDS011;6522;49.622;6.126;2022-12-29T07:05:52;3.33;;;2.20;;
12908;SDS011;6522;49.622;6.126;2022-12-29T07:08:39;3.25;;;2.53;;
12908;SDS011;6522;49.622;6.126;2022-12-29T07:11:25;2.40;;;2.20;;
12908;SDS011;6522;49.622;6.126;2022-12-29T07:14:12;2.72;;;2.50;;
12908;SDS011;6522;49.622;6.126;2022-12-29T07:16:59;2.62;;;2.03;;
12908;SDS011;6522;49.622;6.126;2022-12-29T07:19:46;3.70;;;1.50;;
12908;SDS011;6522;49.622;6.126;2022-12-29T07:22:32;2.30;;;1.73;;
12908;SDS011;6522;49.622;6.126;2022-12-29T07:25:19;5.80;;;2.50;;
12908;SDS011;6522;49.622;6.126;2022-12-29T07:28:06;2.25;;;2.03;;
12908;SDS011;6522;49.622;6.126;2022-12-29T07:30:53;2.50;;;2.05;;
12908;SDS011;6522;49.622;6.126;2022-12-29T07:33:39;2.15;;;1.85;;
12908;SDS011;6522;49.622;6.126;2022-12-29T07:36:26;5.53;;;2.47;;
12908;SDS011;6522;49.622;6.126;2022-12-29T07:39:13;2.15;;;1.73;;
12908;SDS011;6522;49.622;6.126;2022-12-29T07:42:00;3.33;;;1.60;;
12908;SDS011;6522;49.622;6.126;2022-12-29T07:44:47;5.78;;;2.10;;
12908;SDS011;6522;49.622;6.126;2022-12-29T07:47:33;2.80;;;1.60;;
12908;SDS011;6522;49.622;6.126;2022-12-29T07:50:20;2.50;;;1.95;;
12908;SDS011;6522;49.622;6.126;2022-12-29T07:53:07;3.25;;;2.00;;
12908;SDS011;6522;49.622;6.126;2022-12-29T07:55:54;2.92;;;1.62;;
12908;SDS011;6522;49.622;6.126;2022-12-29T07:58:41;2.15;;;1.92;;
12908;SDS011;6522;49.622;6.126;2022-12-29T08:01:29;2.45;;;1.30;;
12908;SDS011;6522;49.622;6.126;2022-12-29T08:04:15;3.53;;;2.00;;
12908;SDS011;6522;49.622;6.126;2022-12-29T08:07:02;2.95;;;1.05;;
12908;SDS011;6522;49.622;6.126;2022-12-29T08:09:49;2.90;;;1.55;;
12908;SDS011;6522;49.622;6.126;2022-12-29T08:12:37;2.05;;;1.85;;
12908;SDS011;6522;49.622;6.126;2022-12-29T08:15:22;1.87;;;1.40;;
12908;SDS011;6522;49.622;6.126;2022-12-29T08:18:09;1.80;;;1.37;;
12908;SDS011;6522;49.622;6.126;2022-12-29T08:20:56;1.50;;;1.10;;
12908;SDS011;6522;49.622;6.126;2022-12-29T08:23:42;1.35;;;1.10;;
12908;SDS011;6522;49.622;6.126;2022-12-29T08:26:29;4.37;;;1.12;;
12908;SDS011;6522;49.622;6.126;2022-12-29T08:29:16;4.12;;;1.40;;
12908;SDS011;6522;49.622;6.126;2022-12-29T08:32:04;2.80;;;1.65;;
12908;SDS011;6522;49.622;6.126;2022-12-29T08:34:51;2.55;;;1.00;;
12908;SDS011;6522;49.622;6.126;2022-12-29T08:37:37;2.40;;;1.73;;
12908;SDS011;6522;49.622;6.126;2022-12-29T08:40:24;2.30;;;0.87;;
12908;SDS011;6522;49.622;6.126;2022-12-29T08:43:11;3.50;;;1.62;;
12908;SDS011;6522;49.622;6.126;2022-12-29T08:45:57;4.90;;;1.58;;
12908;SDS011;6522;49.622;6.126;2022-12-29T08:48:45;1.75;;;1.60;;
12908;SDS011;6522;49.622;6.126;2022-12-29T08:51:31;7.28;;;1.70;;
12908;SDS011;6522;49.622;6.126;2022-12-29T08:54:18;1.60;;;1.10;;
12908;SDS011;6522;49.622;6.126;2022-12-29T08:57:04;5.00;;;1.55;;
12908;SDS011;6522;49.622;6.126;2022-12-29T08:59:51;4.12;;;1.58;;
12908;SDS011;6522;49.622;6.126;2022-12-29T09:02:38;3.37;;;1.58;;
12908;SDS011;6522;49.622;6.126;2022-12-29T09:05:24;2.97;;;1.45;;
12908;SDS011;6522;49.622;6.126;2022-12-29T09:08:11;3.85;;;1.70;;
12908;SDS011;6522;49.622;6.126;2022-12-29T09:11:07;3.50;;;1.95;;
12908;SDS011;6522;49.622;6.126;2022-12-29T09:13:54;2.15;;;1.77;;
12908;SDS011;6522;49.622;6.126;2022-12-29T09:16:41;2.28;;;1.83;;
12908;SDS011;6522;49.622;6.126;2022-12-29T09:19:46;5.05;;;1.20;;
12908;SDS011;6522;49.622;6.126;2022-12-29T09:22:33;4.15;;;2.40;;
12908;SDS011;6522;49.622;6.126;2022-12-29T09:25:20;4.80;;;2.25;;
12908;SDS011;6522;49.622;6.126;2022-12-29T09:28:06;4.03;;;1.90;;
12908;SDS011;6522;49.622;6.126;2022-12-29T09:30:53;2.95;;;2.50;;
12908;SDS011;6522;49.622;6.126;2022-12-29T09:33:40;3.95;;;2.60;;
12908;SDS011;6522;49.622;6.126;2022-12-29T09:36:26;6.00;;;2.50;;
12908;SDS011;6522;49.622;6.126;2022-12-29T09:39:13;3.50;;;2.33;;
12908;SDS011;6522;49.622;6.126;2022-12-29T09:42:01;4.12;;;2.03;;
12908;SDS011;6522;49.622;6.126;2022-12-29T09:44:49;2.78;;;1.90;;
12908;SDS011;6522;49.622;6.126;2022-12-29T09:47:33;2.50;;;1.20;;
12908;SDS011;6522;49.622;6.126;2022-12-29T09:53:11;2.35;;;2.12;;
12908;SDS011;6522;49.622;6.126;2022-12-29T09:55:57;7.87;;;2.85;;
12908;SDS011;6522;49.622;6.126;2022-12-29T09:58:57;2.87;;;2.15;;
12908;SDS011;6522;49.622;6.126;2022-12-29T10:04:47;4.43;;;1.30;;
12908;SDS011;6522;49.622;6.126;2022-12-29T10:07:45;9.52;;;2.67;;
12908;SDS011;6522;49.622;6.126;2022-12-29T10:13:42;3.00;;;2.70;;
12908;SDS011;6522;49.622;6.126;2022-12-29T10:16:38;2.87;;;2.22;;
12908;SDS011;6522;49.622;6.126;2022-12-29T10:19:22;3.10;;;2.10;;
12908;SDS011;6522;49.622;6.126;2022-12-29T10:24:54;4.20;;;2.37;;
12908;SDS011;6522;49.622;6.126;2022-12-29T10:27:41;7.22;;;2.90;;
12908;SDS011;6522;49.622;6.126;2022-12-29T10:30:28;2.33;;;1.87;;
12908;SDS011;6522;49.622;6.126;2022-12-29T10:33:17;3.87;;;2.28;;
12908;SDS011;6522;49.622;6.126;2022-12-29T10:36:04;4.25;;;1.60;;
12908;SDS011;6522;49.622;6.126;2022-12-29T10:39:13;4.07;;;2.50;;
12908;SDS011;6522;49.622;6.126;2022-12-29T10:44:59;2.50;;;2.30;;
12908;SDS011;6522;49.622;6.126;2022-12-29T10:47:50;2.95;;;2.30;;
12908;SDS011;6522;49.622;6.126;2022-12-29T10:50:32;2.58;;;2.37;;
12908;SDS011;6522;49.622;6.126;2022-12-29T10:53:20;5.43;;;2.30;;
12908;SDS011;6522;49.622;6.126;2022-12-29T10:56:09;4.47;;;2.53;;
12908;SDS011;6522;49.622;6.126;2022-12-29T10:58:53;2.62;;;2.42;;
12908;SDS011;6522;49.622;6.126;2022-12-29T11:01:42;4.10;;;1.52;;
12908;SDS011;6522;49.622;6.126;2022-12-29T11:04:35;2.80;;;2.40;;
12908;SDS011;6522;49.622;6.126;2022-12-29T11:07:19;4.43;;;1.30;;
12908;SDS011;6522;49.622;6.126;2022-12-29T11:13:24;2.33;;;2.12;;
12908;SDS011;6522;49.622;6.126;2022-12-29T11:16:04;3.72;;;2.65;;
12908;SDS011;6522;49.622;6.126;2022-12-29T11:18:51;2.62;;;2.42;;
12908;SDS011;6522;49.622;6.126;2022-12-29T11:21:38;4.20;;;2.60;;
12908;SDS011;6522;49.622;6.126;2022-12-29T11:24:25;3.62;;;2.22;;
12908;SDS011;6522;49.622;6.126;2022-12-29T11:27:15;5.10;;;2.50;;
12908;SDS011;6522;49.622;6.126;2022-12-29T11:29:57;7.82;;;2.50;;
12908;SDS011;6522;49.622;6.126;2022-12-29T11:32:50;4.78;;;3.08;;
12908;SDS011;6522;49.622;6.126;2022-12-29T11:35:43;4.05;;;3.20;;
12908;SDS011;6522;49.622;6.126;2022-12-29T11:38:33;3.22;;;2.92;;
12908;SDS011;6522;49.622;6.126;2022-12-29T11:41:13;4.20;;;3.58;;
12908;SDS011;6522;49.622;6.126;2022-12-29T11:44:02;6.90;;;3.75;;
12908;SDS011;6522;49.622;6.126;2022-12-29T11:46:48;5.50;;;3.53;;
12908;SDS011;6522;49.622;6.126;2022-12-29T11:49:34;3.95;;;3.65;;
12908;SDS011;6522;49.622;6.126;2022-12-29T11:52:21;5.72;;;3.72;;
12908;SDS011;6522;49.622;6.126;2022-12-29T11:55:13;3.95;;;3.50;;
12908;SDS011;6522;49.622;6.126;2022-12-29T11:57:55;5.05;;;3.60;;
12908;SDS011;6522;49.622;6.126;2022-12-29T12:00:41;4.12;;;3.75;;
12908;SDS011;6522;49.622;6.126;2022-12-29T12:03:28;5.03;;;4.57;;
12908;SDS011;6522;49.622;6.126;2022-12-29T12:06:16;6.72;;;4.50;;
12908;SDS011;6522;49.622;6.126;2022-12-29T12:09:06;6.68;;;4.90;;
12908;SDS011;6522;49.622;6.126;2022-12-29T12:11:51;5.25;;;4.80;;
12908;SDS011;6522;49.622;6.126;2022-12-29T12:14:38;5.07;;;4.18;;
12908;SDS011;6522;49.622;6.126;2022-12-29T12:20:38;4.57;;;3.97;;
12908;SDS011;6522;49.622;6.126;2022-12-29T12:23:25;5.87;;;4.80;;
12908;SDS011;6522;49.622;6.126;2022-12-29T12:26:11;5.10;;;4.80;;
12908;SDS011;6522;49.622;6.126;2022-12-29T12:28:58;6.53;;;5.90;;
12908;SDS011;6522;49.622;6.126;2022-12-29T12:31:59;6.50;;;6.10;;
12908;SDS011;6522;49.622;6.126;2022-12-29T12:34:44;9.90;;;6.45;;
12908;SDS011;6522;49.622;6.126;2022-12-29T12:37:47;7.15;;;6.62;;
12908;SDS011;6522;49.622;6.126;2022-12-29T12:43:36;7.82;;;7.12;;
12908;SDS011;6522;49.622;6.126;2022-12-29T12:52:26;8.98;;;6.78;;
12908;SDS011;6522;49.622;6.126;2022-12-29T12:58:09;6.75;;;6.30;;
12908;SDS011;6522;49.622;6.126;2022-12-29T13:00:57;7.00;;;6.50;;
12908;SDS011;6522;49.622;6.126;2022-12-29T13:03:46;8.35;;;7.05;;
12908;SDS011;6522;49.622;6.126;2022-12-29T13:06:35;6.40;;;5.87;;
12908;SDS011;6522;49.622;6.126;2022-12-29T13:09:21;6.20;;;5.70;;
12908;SDS011;6522;49.622;6.126;2022-12-29T13:15:01;6.20;;;5.70;;
12908;SDS011;6522;49.622;6.126;2022-12-29T13:21:05;6.57;;;5.97;;
12908;SDS011;6522;49.622;6.126;2022-12-29T13:23:41;6.12;;;5.72;;
12908;SDS011;6522;49.622;6.126;2022-12-29T13:26:24;6.30;;;5.80;;
12908;SDS011;6522;49.622;6.126;2022-12-29T13:32:02;6.03;;;5.72;;
12908;SDS011;6522;49.622;6.126;2022-12-29T13:35:02;9.98;;;6.25;;
12908;SDS011;6522;49.622;6.126;2022-12-29T13:37:47;6.75;;;5.90;;
12908;SDS011;6522;49.622;6.126;2022-12-29T13:40:32;6.37;;;5.70;;
12908;SDS011;6522;49.622;6.126;2022-12-29T13:43:18;9.30;;;3.70;;
12908;SDS011;6522;49.622;6.126;2022-12-29T13:46:10;6.95;;;6.55;;
12908;SDS011;6522;49.622;6.126;2022-12-29T13:49:00;7.30;;;6.68;;
12908;SDS011;6522;49.622;6.126;2022-12-29T13:51:55;8.80;;;8.05;;
12908;SDS011;6522;49.622;6.126;2022-12-29T13:54:54;6.47;;;6.07;;
12908;SDS011;6522;49.622;6.126;2022-12-29T14:00:48;6.70;;;6.40;;
12908;SDS011;6522;49.622;6.126;2022-12-29T14:06:32;7.65;;;6.10;;
12908;SDS011;6522;49.622;6.126;2022-12-29T14:15:14;8.90;;;8.00;;
12908;SDS011;6522;49.622;6.126;2022-12-29T14:18:34;9.48;;;7.60;;
12908;SDS011;6522;49.622;6.126;2022-12-29T14:38:16;7.40;;;6.03;;
12908;SDS011;6522;49.622;6.126;2022-12-29T14:49:41;7.65;;;5.72;;
12908;SDS011;6522;49.622;6.126;2022-12-29T14:52:27;8.68;;;3.30;;
12908;SDS011;6522;49.622;6.126;2022-12-29T14:58:04;4.55;;;4.15;;
12908;SDS011;6522;49.622;6.126;2022-12-29T15:00:50;8.15;;;3.45;;
12908;SDS011;6522;49.622;6.126;2022-12-29T15:03:48;9.40;;;3.40;;
12908;SDS011;6522;49.622;6.126;2022-12-29T15:06:35;7.85;;;3.78;;
12908;SDS011;6522;49.622;6.126;2022-12-29T15:09:31;8.82;;;3.78;;
12908;SDS011;6522;49.622;6.126;2022-12-29T15:15:20;3.35;;;2.50;;
12908;SDS011;6522;49.622;6.126;2022-12-29T15:18:13;4.30;;;3.40;;
12908;SDS011;6522;49.622;6.126;2022-12-29T15:21:01;4.82;;;3.35;;
12908;SDS011;6522;49.622;6.126;2022-12-29T15:23:44;5.60;;;3.45;;
12908;SDS011;6522;49.622;6.126;2022-12-29T15:26:42;6.68;;;2.40;;
12908;SDS011;6522;49.622;6.126;2022-12-29T15:29:31;7.22;;;3.75;;
12908;SDS011;6522;49.622;6.126;2022-12-29T15:32:21;7.87;;;4.28;;
12908;SDS011;6522;49.622;6.126;2022-12-29T15:35:26;7.45;;;4.20;;
12908;SDS011;6522;49.622;6.126;2022-12-29T15:38:15;5.90;;;3.70;;
12908;SDS011;6522;49.622;6.126;2022-12-29T15:41:47;6.30;;;3.15;;
12908;SDS011;6522;49.622;6.126;2022-12-29T15:43:58;10.52;;;4.03;;
12908;SDS011;6522;49.622;6.126;2022-12-29T15:46:41;4.25;;;2.67;;
12908;SDS011;6522;49.622;6.126;2022-12-29T15:49:28;6.12;;;2.10;;
12908;SDS011;6522;49.622;6.126;2022-12-29T15:52:18;5.82;;;3.20;;
12908;SDS011;6522;49.622;6.126;2022-12-29T15:55:04;7.75;;;3.35;;
12908;SDS011;6522;49.622;6.126;2022-12-29T15:57:51;6.37;;;3.37;;
12908;SDS011;6522;49.622;6.126;2022-12-29T16:00:38;7.72;;;4.30;;
12908;SDS011;6522;49.622;6.126;2022-12-29T16:03:25;10.68;;;3.33;;
12908;SDS011;6522;49.622;6.126;2022-12-29T16:09:18;6.20;;;3.15;;
12908;SDS011;6522;49.622;6.126;2022-12-29T16:12:04;5.12;;;2.75;;
12908;SDS011;6522;49.622;6.126;2022-12-29T16:15:12;6.37;;;2.90;;
12908;SDS011;6522;49.622;6.126;2022-12-29T16:17:41;7.32;;;2.87;;
12908;SDS011;6522;49.622;6.126;2022-12-29T16:20:24;7.10;;;2.83;;
12908;SDS011;6522;49.622;6.126;2022-12-29T16:23:20;11.73;;;2.95;;
12908;SDS011;6522;49.622;6.126;2022-12-29T16:26:06;8.15;;;3.42;;
12908;SDS011;6522;49.622;6.126;2022-12-29T16:28:59;7.00;;;3.25;;
12908;SDS011;6522;49.622;6.126;2022-12-29T16:37:28;6.00;;;3.00;;
12908;SDS011;6522;49.622;6.126;2022-12-29T16:43:04;7.68;;;2.37;;
12908;SDS011;6522;49.622;6.126;2022-12-29T16:48:47;12.82;;;3.45;;
12908;SDS011;6522;49.622;6.126;2022-12-29T16:51:34;6.85;;;2.30;;
12908;SDS011;6522;49.622;6.126;2022-12-29T16:54:21;13.43;;;2.85;;
12908;SDS011;6522;49.622;6.126;2022-12-29T16:57:07;6.62;;;2.97;;
12908;SDS011;6522;49.622;6.126;2022-12-29T16:59:54;5.80;;;2.62;;
12908;SDS011;6522;49.622;6.126;2022-12-29T17:02:40;9.70;;;3.30;;
12908;SDS011;6522;49.622;6.126;2022-12-29T17:05:27;6.90;;;1.90;;
12908;SDS011;6522;49.622;6.126;2022-12-29T17:08:18;12.10;;;2.90;;
12908;SDS011;6522;49.622;6.126;2022-12-29T17:11:03;8.88;;;2.92;;
12908;SDS011;6522;49.622;6.126;2022-12-29T17:14:19;9.10;;;2.35;;
12908;SDS011;6522;49.622;6.126;2022-12-29T17:17:06;5.97;;;2.75;;
12908;SDS011;6522;49.622;6.126;2022-12-29T17:19:52;12.90;;;3.25;;
12908;SDS011;6522;49.622;6.126;2022-12-29T17:22:38;6.05;;;3.65;;
12908;SDS011;6522;49.622;6.126;2022-12-29T17:25:28;7.93;;;3.10;;
12908;SDS011;6522;49.622;6.126;2022-12-29T17:28:27;8.60;;;2.55;;
12908;SDS011;6522;49.622;6.126;2022-12-29T17:31:13;11.70;;;2.90;;
12908;SDS011;6522;49.622;6.126;2022-12-29T17:34:00;8.23;;;2.65;;
12908;SDS011;6522;49.622;6.126;2022-12-29T17:36:47;4.90;;;2.17;;
12908;SDS011;6522;49.622;6.126;2022-12-29T17:39:34;7.95;;;2.10;;
12908;SDS011;6522;49.622;6.126;2022-12-29T17:42:20;8.63;;;3.60;;
12908;SDS011;6522;49.622;6.126;2022-12-29T17:45:11;8.00;;;2.22;;
12908;SDS011;6522;49.622;6.126;2022-12-29T17:47:54;4.53;;;2.55;;
12908;SDS011;6522;49.622;6.126;2022-12-29T17:50:41;5.78;;;2.22;;
12908;SDS011;6522;49.622;6.126;2022-12-29T17:53:28;8.57;;;2.87;;
12908;SDS011;6522;49.622;6.126;2022-12-29T17:56:14;8.10;;;2.30;;
12908;SDS011;6522;49.622;6.126;2022-12-29T17:59:01;6.50;;;3.08;;
12908;SDS011;6522;49.622;6.126;2022-12-29T18:01:47;11.90;;;2.35;;
12908;SDS011;6522;49.622;6.126;2022-12-29T18:04:34;11.43;;;3.37;;
12908;SDS011;6522;49.622;6.126;2022-12-29T18:07:20;3.90;;;2.67;;
12908;SDS011;6522;49.622;6.126;2022-12-29T18:10:07;6.28;;;4.05;;
12908;SDS011;6522;49.622;6.126;2022-12-29T18:12:54;4.20;;;2.53;;
12908;SDS011;6522;49.622;6.126;2022-12-29T18:15:40;11.85;;;3.55;;
12908;SDS011;6522;49.622;6.126;2022-12-29T18:18:26;3.35;;;2.05;;
12908;SDS011;6522;49.622;6.126;2022-12-29T18:21:15;8.18;;;2.40;;
12908;SDS011;6522;49.622;6.126;2022-12-29T18:24:00;4.78;;;3.00;;
12908;SDS011;6522;49.622;6.126;2022-12-29T18:26:47;7.43;;;2.40;;
12908;SDS011;6522;49.622;6.126;2022-12-29T18:29:33;9.90;;;3.15;;
12908;SDS011;6522;49.622;6.126;2022-12-29T18:32:20;13.75;;;2.87;;
12908;SDS011;6522;49.622;6.126;2022-12-29T18:36:09;4.65;;;2.83;;
12908;SDS011;6522;49.622;6.126;2022-12-29T18:38:03;10.32;;;2.40;;
12908;SDS011;6522;49.622;6.126;2022-12-29T18:40:50;5.30;;;1.92;;
12908;SDS011;6522;49.622;6.126;2022-12-29T18:43:37;4.28;;;2.60;;
12908;SDS011;6522;49.622;6.126;2022-12-29T18:46:23;14.15;;;2.30;;
12908;SDS011;6522;49.622;6.126;2022-12-29T18:49:10;5.55;;;2.22;;
12908;SDS011;6522;49.622;6.126;2022-12-29T18:51:57;11.80;;;2.60;;
12908;SDS011;6522;49.622;6.126;2022-12-29T18:54:44;8.13;;;1.85;;
12908;SDS011;6522;49.622;6.126;2022-12-29T18:57:31;4.68;;;2.50;;
12908;SDS011;6522;49.622;6.126;2022-12-29T19:00:18;8.98;;;2.35;;
12908;SDS011;6522;49.622;6.126;2022-12-29T19:03:04;6.87;;;2.10;;
12908;SDS011;6522;49.622;6.126;2022-12-29T19:05:51;7.93;;;2.60;;